aviador You're here:

YMHB Decoded Metar

HOBART in AUSTRALIA
Report Time2017-10-22 17:00:00
UTC Time2017-10-22 17:24:36
Flight Rules vfr VFR
Wind280° at 14 kt
W.Decomp.*RWY 30: 11.3 kt HW 8.2 kt LCW
W.Rank280° ranks 13
Current wind is above 280° avg. (10.9)
Visibility9999 m
Phenomena:N/A
Clouds:Few 040 Hf
Broken 120 Hf
Broken 160 Hf
Expected CloudBase > 2,800 ft AGL from Temp-Dew spread
Ceiling12,000 ft
Temp14°C (ISA -1)
Dew Point07°C (63% RH)
AAT8.3°C
QNH1012 hPa
Density Alt161 ft
Elevation89 ft
Report Wrong Elevation
Raw Report
YMHB 221700Z 28014KT 9999 FEW040 BKN120 BKN160 14/07 Q1012
RF00.0/000.0=

Extra information for YMHB:More info

Metar Taf Metar & Taf Last 4 Metars F.Rules Stats Wind Profile Meteogram Temp Stats Airport Information Weather charts Add Link Nearby VenuesMetar ALERT Operation Metar Decoded Social comments